sensor_id;sensor_type;location;lat;lon;timestamp;P1;durP1;ratioP1;P2;durP2;ratioP2
2191;SDS011;1102;49.718;11.902;2022-08-07T00:01:14;1.63;;;1.10;;
2191;SDS011;1102;49.718;11.902;2022-08-07T00:04:05;2.13;;;1.40;;
2191;SDS011;1102;49.718;11.902;2022-08-07T00:06:36;3.33;;;1.53;;
2191;SDS011;1102;49.718;11.902;2022-08-07T00:09:17;2.90;;;1.10;;
2191;SDS011;1102;49.718;11.902;2022-08-07T00:11:47;1.50;;;0.90;;
2191;SDS011;1102;49.718;11.902;2022-08-07T00:14:22;1.40;;;1.30;;
2191;SDS011;1102;49.718;11.902;2022-08-07T00:16:50;2.17;;;1.20;;
2191;SDS011;1102;49.718;11.902;2022-08-07T00:19:17;2.10;;;1.40;;
2191;SDS011;1102;49.718;11.902;2022-08-07T00:21:51;3.10;;;1.50;;
2191;SDS011;1102;49.718;11.902;2022-08-07T00:24:27;1.53;;;1.43;;
2191;SDS011;1102;49.718;11.902;2022-08-07T00:26:57;2.40;;;1.23;;
2191;SDS011;1102;49.718;11.902;2022-08-07T00:29:33;2.60;;;1.20;;
2191;SDS011;1102;49.718;11.902;2022-08-07T00:32:03;2.30;;;1.30;;
2191;SDS011;1102;49.718;11.902;2022-08-07T00:34:53;1.47;;;1.37;;
2191;SDS011;1102;49.718;11.902;2022-08-07T00:37:20;4.63;;;1.70;;
2191;SDS011;1102;49.718;11.902;2022-08-07T00:39:54;1.47;;;1.23;;
2191;SDS011;1102;49.718;11.902;2022-08-07T00:42:21;1.87;;;1.10;;
2191;SDS011;1102;49.718;11.902;2022-08-07T00:44:54;2.07;;;1.30;;
2191;SDS011;1102;49.718;11.902;2022-08-07T00:47:21;1.33;;;1.17;;
2191;SDS011;1102;49.718;11.902;2022-08-07T00:50:08;2.33;;;1.60;;
2191;SDS011;1102;49.718;11.902;2022-08-07T00:52:55;1.60;;;1.50;;
2191;SDS011;1102;49.718;11.902;2022-08-07T00:55:21;1.47;;;1.37;;
2191;SDS011;1102;49.718;11.902;2022-08-07T00:58:08;1.63;;;1.40;;
2191;SDS011;1102;49.718;11.902;2022-08-07T01:00:35;2.63;;;1.50;;
2191;SDS011;1102;49.718;11.902;2022-08-07T01:03:02;2.80;;;1.80;;
2191;SDS011;1102;49.718;11.902;2022-08-07T01:05:31;1.87;;;1.50;;
2191;SDS011;1102;49.718;11.902;2022-08-07T01:08:03;1.67;;;1.57;;
2191;SDS011;1102;49.718;11.902;2022-08-07T01:10:34;3.30;;;1.93;;
2191;SDS011;1102;49.718;11.902;2022-08-07T01:13:01;2.23;;;1.30;;
2191;SDS011;1102;49.718;11.902;2022-08-07T01:15:29;2.67;;;1.20;;
2191;SDS011;1102;49.718;11.902;2022-08-07T01:18:19;2.47;;;1.37;;
2191;SDS011;1102;49.718;11.902;2022-08-07T01:23:53;1.90;;;1.37;;
2191;SDS011;1102;49.718;11.902;2022-08-07T01:26:22;1.40;;;1.30;;
2191;SDS011;1102;49.718;11.902;2022-08-07T01:28:52;1.53;;;1.43;;
2191;SDS011;1102;49.718;11.902;2022-08-07T01:31:24;1.93;;;1.77;;
2191;SDS011;1102;49.718;11.902;2022-08-07T01:34:13;2.17;;;2.00;;
2191;SDS011;1102;49.718;11.902;2022-08-07T01:36:41;2.27;;;1.80;;
2191;SDS011;1102;49.718;11.902;2022-08-07T01:39:15;4.27;;;2.50;;
2191;SDS011;1102;49.718;11.902;2022-08-07T01:41:58;1.70;;;1.60;;
2191;SDS011;1102;49.718;11.902;2022-08-07T01:44:45;3.70;;;2.00;;
2191;SDS011;1102;49.718;11.902;2022-08-07T01:47:13;2.07;;;1.70;;
2191;SDS011;1102;49.718;11.902;2022-08-07T01:50:01;1.90;;;1.60;;
2191;SDS011;1102;49.718;11.902;2022-08-07T01:52:30;1.60;;;1.50;;
2191;SDS011;1102;49.718;11.902;2022-08-07T01:54:59;2.00;;;1.80;;
2191;SDS011;1102;49.718;11.902;2022-08-07T01:57:33;1.87;;;1.67;;
2191;SDS011;1102;49.718;11.902;2022-08-07T02:00:23;1.77;;;1.67;;
2191;SDS011;1102;49.718;11.902;2022-08-07T02:03:06;2.50;;;2.30;;
2191;SDS011;1102;49.718;11.902;2022-08-07T02:05:51;2.30;;;2.17;;
2191;SDS011;1102;49.718;11.902;2022-08-07T02:08:29;2.63;;;1.80;;
2191;SDS011;1102;49.718;11.902;2022-08-07T02:11:04;1.70;;;1.60;;
2191;SDS011;1102;49.718;11.902;2022-08-07T02:13:36;2.00;;;1.73;;
2191;SDS011;1102;49.718;11.902;2022-08-07T02:16:27;1.97;;;1.87;;
2191;SDS011;1102;49.718;11.902;2022-08-07T02:19:03;1.97;;;1.83;;
2191;SDS011;1102;49.718;11.902;2022-08-07T02:21:53;2.17;;;1.93;;
2191;SDS011;1102;49.718;11.902;2022-08-07T02:24:24;1.67;;;1.57;;
2191;SDS011;1102;49.718;11.902;2022-08-07T02:26:55;2.33;;;2.07;;
2191;SDS011;1102;49.718;11.902;2022-08-07T02:29:29;2.27;;;2.07;;
2191;SDS011;1102;49.718;11.902;2022-08-07T02:31:57;2.83;;;2.10;;
2191;SDS011;1102;49.718;11.902;2022-08-07T02:34:27;2.73;;;2.30;;
2191;SDS011;1102;49.718;11.902;2022-08-07T02:36:57;5.20;;;2.07;;
2191;SDS011;1102;49.718;11.902;2022-08-07T02:39:35;5.37;;;2.30;;
2191;SDS011;1102;49.718;11.902;2022-08-07T02:42:27;2.20;;;2.00;;
2191;SDS011;1102;49.718;11.902;2022-08-07T02:44:56;2.33;;;1.97;;
2191;SDS011;1102;49.718;11.902;2022-08-07T02:47:37;3.10;;;2.43;;
2191;SDS011;1102;49.718;11.902;2022-08-07T02:50:15;4.20;;;2.30;;
2191;SDS011;1102;49.718;11.902;2022-08-07T02:52:45;3.50;;;2.30;;
2191;SDS011;1102;49.718;11.902;2022-08-07T02:55:29;2.23;;;2.10;;
2191;SDS011;1102;49.718;11.902;2022-08-07T02:58:18;3.53;;;2.40;;
2191;SDS011;1102;49.718;11.902;2022-08-07T03:00:54;3.60;;;2.10;;
2191;SDS011;1102;49.718;11.902;2022-08-07T03:03:22;2.90;;;2.10;;
2191;SDS011;1102;49.718;11.902;2022-08-07T03:06:13;2.00;;;1.90;;
2191;SDS011;1102;49.718;11.902;2022-08-07T03:08:50;2.80;;;1.97;;
2191;SDS011;1102;49.718;11.902;2022-08-07T03:11:18;4.90;;;2.47;;
2191;SDS011;1102;49.718;11.902;2022-08-07T03:13:50;2.00;;;1.77;;
2191;SDS011;1102;49.718;11.902;2022-08-07T03:16:23;1.83;;;1.70;;
2191;SDS011;1102;49.718;11.902;2022-08-07T03:18:54;2.37;;;2.00;;
2191;SDS011;1102;49.718;11.902;2022-08-07T03:21:22;2.60;;;2.17;;
2191;SDS011;1102;49.718;11.902;2022-08-07T03:23:53;5.10;;;1.90;;
2191;SDS011;1102;49.718;11.902;2022-08-07T03:26:41;1.93;;;1.83;;
2191;SDS011;1102;49.718;11.902;2022-08-07T03:29:24;2.30;;;2.13;;
2191;SDS011;1102;49.718;11.902;2022-08-07T03:31:53;2.50;;;2.30;;
2191;SDS011;1102;49.718;11.902;2022-08-07T03:34:22;3.50;;;2.10;;
2191;SDS011;1102;49.718;11.902;2022-08-07T03:36:56;2.77;;;2.57;;
2191;SDS011;1102;49.718;11.902;2022-08-07T03:39:41;2.90;;;2.50;;
2191;SDS011;1102;49.718;11.902;2022-08-07T03:42:28;3.53;;;2.50;;
2191;SDS011;1102;49.718;11.902;2022-08-07T03:44:57;2.40;;;1.97;;
2191;SDS011;1102;49.718;11.902;2022-08-07T03:47:27;3.03;;;2.47;;
2191;SDS011;1102;49.718;11.902;2022-08-07T03:50:15;2.93;;;2.60;;
2191;SDS011;1102;49.718;11.902;2022-08-07T03:52:49;3.00;;;2.07;;
2191;SDS011;1102;49.718;11.902;2022-08-07T03:55:18;2.43;;;2.17;;
2191;SDS011;1102;49.718;11.902;2022-08-07T03:57:45;3.07;;;2.77;;
2191;SDS011;1102;49.718;11.902;2022-08-07T04:00:35;4.47;;;2.27;;
2191;SDS011;1102;49.718;11.902;2022-08-07T04:03:12;2.93;;;2.43;;
2191;SDS011;1102;49.718;11.902;2022-08-07T04:05:39;5.33;;;2.70;;
2191;SDS011;1102;49.718;11.902;2022-08-07T04:08:17;2.37;;;2.17;;
2191;SDS011;1102;49.718;11.902;2022-08-07T04:10:48;2.60;;;2.17;;
2191;SDS011;1102;49.718;11.902;2022-08-07T04:13:37;2.37;;;2.17;;
2191;SDS011;1102;49.718;11.902;2022-08-07T04:16:26;3.30;;;2.70;;
2191;SDS011;1102;49.718;11.902;2022-08-07T04:19:00;5.67;;;2.27;;
2191;SDS011;1102;49.718;11.902;2022-08-07T04:21:39;2.20;;;2.00;;
2191;SDS011;1102;49.718;11.902;2022-08-07T04:24:30;4.67;;;2.30;;
2191;SDS011;1102;49.718;11.902;2022-08-07T04:27:06;1.90;;;1.80;;
2191;SDS011;1102;49.718;11.902;2022-08-07T04:29:53;2.23;;;1.90;;
2191;SDS011;1102;49.718;11.902;2022-08-07T04:32:45;2.10;;;2.00;;
2191;SDS011;1102;49.718;11.902;2022-08-07T04:35:15;3.00;;;2.07;;
2191;SDS011;1102;49.718;11.902;2022-08-07T04:37:43;2.23;;;2.03;;
2191;SDS011;1102;49.718;11.902;2022-08-07T04:40:30;2.13;;;1.97;;
2191;SDS011;1102;49.718;11.902;2022-08-07T04:42:58;2.50;;;1.83;;
2191;SDS011;1102;49.718;11.902;2022-08-07T04:45:37;1.70;;;1.60;;
2191;SDS011;1102;49.718;11.902;2022-08-07T04:51:08;2.03;;;1.83;;
2191;SDS011;1102;49.718;11.902;2022-08-07T04:56:37;4.70;;;2.43;;
2191;SDS011;1102;49.718;11.902;2022-08-07T05:02:59;3.10;;;2.00;;
2191;SDS011;1102;49.718;11.902;2022-08-07T05:05:54;2.37;;;2.10;;
2191;SDS011;1102;49.718;11.902;2022-08-07T05:08:48;2.80;;;2.20;;
2191;SDS011;1102;49.718;11.902;2022-08-07T05:11:35;3.07;;;2.87;;
2191;SDS011;1102;49.718;11.902;2022-08-07T05:14:26;3.00;;;2.20;;
2191;SDS011;1102;49.718;11.902;2022-08-07T05:17:19;2.43;;;2.23;;
2191;SDS011;1102;49.718;11.902;2022-08-07T05:20:10;4.43;;;2.37;;
2191;SDS011;1102;49.718;11.902;2022-08-07T05:22:42;2.83;;;2.23;;
2191;SDS011;1102;49.718;11.902;2022-08-07T05:25:14;2.47;;;2.27;;
2191;SDS011;1102;49.718;11.902;2022-08-07T05:28:04;2.17;;;2.07;;
2191;SDS011;1102;49.718;11.902;2022-08-07T05:30:46;4.53;;;1.93;;
2191;SDS011;1102;49.718;11.902;2022-08-07T05:33:16;2.43;;;2.23;;
2191;SDS011;1102;49.718;11.902;2022-08-07T05:35:47;2.23;;;1.93;;
2191;SDS011;1102;49.718;11.902;2022-08-07T05:38:17;1.90;;;1.80;;
2191;SDS011;1102;49.718;11.902;2022-08-07T05:41:07;2.57;;;2.37;;
2191;SDS011;1102;49.718;11.902;2022-08-07T05:43:43;2.80;;;2.00;;
2191;SDS011;1102;49.718;11.902;2022-08-07T05:46:33;2.50;;;2.13;;
2191;SDS011;1102;49.718;11.902;2022-08-07T05:49:06;2.30;;;2.10;;
2191;SDS011;1102;49.718;11.902;2022-08-07T05:51:42;2.80;;;2.60;;
2191;SDS011;1102;49.718;11.902;2022-08-07T05:54:15;2.67;;;2.47;;
2191;SDS011;1102;49.718;11.902;2022-08-07T05:56:57;4.67;;;2.40;;
2191;SDS011;1102;49.718;11.902;2022-08-07T05:59:26;2.60;;;2.07;;
2191;SDS011;1102;49.718;11.902;2022-08-07T06:02:12;1.97;;;1.83;;
2191;SDS011;1102;49.718;11.902;2022-08-07T06:04:56;2.90;;;2.00;;
2191;SDS011;1102;49.718;11.902;2022-08-07T06:07:30;2.37;;;2.17;;
2191;SDS011;1102;49.718;11.902;2022-08-07T06:10:19;2.33;;;2.07;;
2191;SDS011;1102;49.718;11.902;2022-08-07T06:12:48;2.80;;;1.70;;
2191;SDS011;1102;49.718;11.902;2022-08-07T06:15:15;1.90;;;1.70;;
2191;SDS011;1102;49.718;11.902;2022-08-07T06:17:46;2.03;;;1.90;;
2191;SDS011;1102;49.718;11.902;2022-08-07T06:20:24;2.03;;;1.90;;
2191;SDS011;1102;49.718;11.902;2022-08-07T06:23:12;2.70;;;1.93;;
2191;SDS011;1102;49.718;11.902;2022-08-07T06:25:59;2.60;;;1.83;;
2191;SDS011;1102;49.718;11.902;2022-08-07T06:28:28;2.73;;;1.80;;
2191;SDS011;1102;49.718;11.902;2022-08-07T06:30:56;1.80;;;1.70;;
2191;SDS011;1102;49.718;11.902;2022-08-07T06:33:24;2.00;;;1.80;;
2191;SDS011;1102;49.718;11.902;2022-08-07T06:35:55;2.03;;;1.30;;
2191;SDS011;1102;49.718;11.902;2022-08-07T06:38:49;1.40;;;1.30;;
2191;SDS011;1102;49.718;11.902;2022-08-07T06:41:44;3.00;;;1.70;;
2191;SDS011;1102;49.718;11.902;2022-08-07T06:44:47;4.80;;;1.87;;
2191;SDS011;1102;49.718;11.902;2022-08-07T06:47:18;1.50;;;1.40;;
2191;SDS011;1102;49.718;11.902;2022-08-07T06:49:54;1.50;;;1.40;;
2191;SDS011;1102;49.718;11.902;2022-08-07T06:52:29;1.63;;;1.47;;
2191;SDS011;1102;49.718;11.902;2022-08-07T06:55:12;1.60;;;1.50;;
2191;SDS011;1102;49.718;11.902;2022-08-07T06:58:06;2.13;;;1.77;;
2191;SDS011;1102;49.718;11.902;2022-08-07T07:00:44;1.83;;;1.73;;
2191;SDS011;1102;49.718;11.902;2022-08-07T07:03:11;2.23;;;1.60;;
2191;SDS011;1102;49.718;11.902;2022-08-07T07:05:42;2.37;;;1.80;;
2191;SDS011;1102;49.718;11.902;2022-08-07T07:08:32;3.20;;;1.90;;
2191;SDS011;1102;49.718;11.902;2022-08-07T07:11:00;2.00;;;1.63;;
2191;SDS011;1102;49.718;11.902;2022-08-07T07:13:48;2.23;;;1.40;;
2191;SDS011;1102;49.718;11.902;2022-08-07T07:16:27;1.30;;;1.20;;
2191;SDS011;1102;49.718;11.902;2022-08-07T07:19:15;2.73;;;1.20;;
2191;SDS011;1102;49.718;11.902;2022-08-07T07:22:07;1.90;;;1.30;;
2191;SDS011;1102;49.718;11.902;2022-08-07T07:24:54;1.77;;;1.67;;
2191;SDS011;1102;49.718;11.902;2022-08-07T07:27:50;2.23;;;1.40;;
2191;SDS011;1102;49.718;11.902;2022-08-07T07:30:31;2.67;;;1.13;;
2191;SDS011;1102;49.718;11.902;2022-08-07T07:33:05;3.27;;;1.70;;
2191;SDS011;1102;49.718;11.902;2022-08-07T07:35:37;1.60;;;1.50;;
2191;SDS011;1102;49.718;11.902;2022-08-07T07:38:27;3.37;;;1.40;;
2191;SDS011;1102;49.718;11.902;2022-08-07T07:40:55;1.40;;;1.30;;
2191;SDS011;1102;49.718;11.902;2022-08-07T07:43:29;1.60;;;1.50;;
2191;SDS011;1102;49.718;11.902;2022-08-07T07:46:18;1.63;;;1.20;;
2191;SDS011;1102;49.718;11.902;2022-08-07T07:49:08;1.70;;;1.60;;
2191;SDS011;1102;49.718;11.902;2022-08-07T07:51:56;5.00;;;1.90;;
2191;SDS011;1102;49.718;11.902;2022-08-07T07:54:25;1.40;;;1.30;;
2191;SDS011;1102;49.718;11.902;2022-08-07T07:56:54;1.50;;;1.40;;
2191;SDS011;1102;49.718;11.902;2022-08-07T07:59:23;1.37;;;1.20;;
2191;SDS011;1102;49.718;11.902;2022-08-07T08:02:12;2.90;;;2.67;;
2191;SDS011;1102;49.718;11.902;2022-08-07T08:05:09;1.70;;;1.60;;
2191;SDS011;1102;49.718;11.902;2022-08-07T08:08:14;1.43;;;1.33;;
2191;SDS011;1102;49.718;11.902;2022-08-07T08:11:07;1.50;;;1.40;;
2191;SDS011;1102;49.718;11.902;2022-08-07T08:13:59;2.20;;;2.00;;
2191;SDS011;1102;49.718;11.902;2022-08-07T08:16:41;1.67;;;1.57;;
2191;SDS011;1102;49.718;11.902;2022-08-07T08:19:18;1.23;;;1.10;;
2191;SDS011;1102;49.718;11.902;2022-08-07T08:22:16;4.17;;;1.50;;
2191;SDS011;1102;49.718;11.902;2022-08-07T08:25:32;1.40;;;1.30;;
2191;SDS011;1102;49.718;11.902;2022-08-07T08:28:45;1.60;;;1.40;;
2191;SDS011;1102;49.718;11.902;2022-08-07T08:31:32;1.93;;;1.83;;
2191;SDS011;1102;49.718;11.902;2022-08-07T08:34:49;1.07;;;0.97;;
2191;SDS011;1102;49.718;11.902;2022-08-07T08:37:33;1.57;;;1.10;;
2191;SDS011;1102;49.718;11.902;2022-08-07T08:40:37;1.90;;;1.60;;
2191;SDS011;1102;49.718;11.902;2022-08-07T08:49:55;1.23;;;1.07;;
2191;SDS011;1102;49.718;11.902;2022-08-07T08:59:45;1.60;;;1.50;;
2191;SDS011;1102;49.718;11.902;2022-08-07T09:06:25;1.30;;;1.20;;
2191;SDS011;1102;49.718;11.902;2022-08-07T09:09:35;1.77;;;1.40;;
2191;SDS011;1102;49.718;11.902;2022-08-07T09:15:35;1.10;;;1.00;;
2191;SDS011;1102;49.718;11.902;2022-08-07T09:25:10;3.67;;;1.37;;
2191;SDS011;1102;49.718;11.902;2022-08-07T09:30:40;1.13;;;1.03;;
2191;SDS011;1102;49.718;11.902;2022-08-07T09:36:26;1.63;;;1.53;;
2191;SDS011;1102;49.718;11.902;2022-08-07T09:54:25;3.43;;;1.10;;
2191;SDS011;1102;49.718;11.902;2022-08-07T10:05:28;3.70;;;1.27;;
2191;SDS011;1102;49.718;11.902;2022-08-07T10:41:32;1.50;;;1.20;;
2191;SDS011;1102;49.718;11.902;2022-08-07T10:50:22;1.33;;;1.17;;
2191;SDS011;1102;49.718;11.902;2022-08-07T10:52:59;2.47;;;1.53;;
2191;SDS011;1102;49.718;11.902;2022-08-07T11:07:05;3.13;;;1.63;;
2191;SDS011;1102;49.718;11.902;2022-08-07T11:10:08;1.63;;;1.20;;
2191;SDS011;1102;49.718;11.902;2022-08-07T11:12:45;1.20;;;1.10;;
2191;SDS011;1102;49.718;11.902;2022-08-07T11:15:28;2.43;;;1.20;;
2191;SDS011;1102;49.718;11.902;2022-08-07T11:28:50;1.83;;;1.30;;
2191;SDS011;1102;49.718;11.902;2022-08-07T11:31:36;1.30;;;1.13;;
2191;SDS011;1102;49.718;11.902;2022-08-07T11:37:04;1.40;;;1.30;;
2191;SDS011;1102;49.718;11.902;2022-08-07T11:39:50;1.37;;;1.27;;
2191;SDS011;1102;49.718;11.902;2022-08-07T11:48:11;1.30;;;1.20;;
2191;SDS011;1102;49.718;11.902;2022-08-07T11:56:59;1.20;;;1.10;;
2191;SDS011;1102;49.718;11.902;2022-08-07T11:59:39;1.30;;;1.20;;
2191;SDS011;1102;49.718;11.902;2022-08-07T12:05:27;1.40;;;1.30;;
2191;SDS011;1102;49.718;11.902;2022-08-07T12:11:01;2.43;;;1.50;;
2191;SDS011;1102;49.718;11.902;2022-08-07T12:16:15;1.30;;;1.20;;
2191;SDS011;1102;49.718;11.902;2022-08-07T12:22:07;1.43;;;1.20;;
2191;SDS011;1102;49.718;11.902;2022-08-07T12:25:02;1.40;;;1.30;;
2191;SDS011;1102;49.718;11.902;2022-08-07T12:28:10;1.23;;;1.13;;
2191;SDS011;1102;49.718;11.902;2022-08-07T12:30:41;3.30;;;1.33;;
2191;SDS011;1102;49.718;11.902;2022-08-07T12:33:16;1.10;;;1.00;;
2191;SDS011;1102;49.718;11.902;2022-08-07T12:35:56;1.60;;;1.50;;
2191;SDS011;1102;49.718;11.902;2022-08-07T12:38:27;1.53;;;1.33;;
2191;SDS011;1102;49.718;11.902;2022-08-07T12:41:08;1.40;;;1.30;;
2191;SDS011;1102;49.718;11.902;2022-08-07T12:43:36;1.40;;;1.30;;
2191;SDS011;1102;49.718;11.902;2022-08-07T12:49:14;5.60;;;1.60;;
2191;SDS011;1102;49.718;11.902;2022-08-07T12:52:09;2.03;;;1.60;;
2191;SDS011;1102;49.718;11.902;2022-08-07T12:54:50;2.10;;;1.20;;
2191;SDS011;1102;49.718;11.902;2022-08-07T12:57:23;3.10;;;1.40;;
2191;SDS011;1102;49.718;11.902;2022-08-07T12:59:50;1.73;;;1.30;;
2191;SDS011;1102;49.718;11.902;2022-08-07T13:13:39;1.57;;;1.47;;
2191;SDS011;1102;49.718;11.902;2022-08-07T13:21:17;1.40;;;1.30;;
2191;SDS011;1102;49.718;11.902;2022-08-07T13:24:08;2.37;;;1.50;;
2191;SDS011;1102;49.718;11.902;2022-08-07T13:29:23;1.10;;;0.90;;
2191;SDS011;1102;49.718;11.902;2022-08-07T13:32:01;1.50;;;1.37;;
2191;SDS011;1102;49.718;11.902;2022-08-07T13:35:05;1.57;;;1.20;;
2191;SDS011;1102;49.718;11.902;2022-08-07T13:42:53;1.40;;;1.27;;
2191;SDS011;1102;49.718;11.902;2022-08-07T13:45:21;1.57;;;1.27;;
2191;SDS011;1102;49.718;11.902;2022-08-07T13:48:08;2.70;;;2.07;;
2191;SDS011;1102;49.718;11.902;2022-08-07T13:50:55;1.80;;;1.30;;
2191;SDS011;1102;49.718;11.902;2022-08-07T13:53:41;1.13;;;1.03;;
2191;SDS011;1102;49.718;11.902;2022-08-07T13:56:26;1.30;;;1.20;;
2191;SDS011;1102;49.718;11.902;2022-08-07T13:59:07;1.23;;;1.10;;
2191;SDS011;1102;49.718;11.902;2022-08-07T14:01:42;1.33;;;1.13;;
2191;SDS011;1102;49.718;11.902;2022-08-07T14:04:24;1.57;;;1.23;;
2191;SDS011;1102;49.718;11.902;2022-08-07T14:07:03;2.13;;;1.40;;
2191;SDS011;1102;49.718;11.902;2022-08-07T14:09:35;1.97;;;1.10;;
2191;SDS011;1102;49.718;11.902;2022-08-07T14:12:31;1.03;;;0.90;;
2191;SDS011;1102;49.718;11.902;2022-08-07T14:15:07;2.10;;;1.27;;
2191;SDS011;1102;49.718;11.902;2022-08-07T14:17:44;1.57;;;1.30;;
2191;SDS011;1102;49.718;11.902;2022-08-07T14:20:31;2.10;;;1.10;;
2191;SDS011;1102;49.718;11.902;2022-08-07T14:23:16;1.37;;;1.00;;
2191;SDS011;1102;49.718;11.902;2022-08-07T14:26:09;1.10;;;1.00;;
2191;SDS011;1102;49.718;11.902;2022-08-07T14:28:53;0.97;;;0.87;;
2191;SDS011;1102;49.718;11.902;2022-08-07T14:31:31;2.13;;;1.07;;
2191;SDS011;1102;49.718;11.902;2022-08-07T14:34:17;1.80;;;1.40;;
2191;SDS011;1102;49.718;11.902;2022-08-07T14:37:08;3.83;;;1.23;;
2191;SDS011;1102;49.718;11.902;2022-08-07T14:39:43;2.40;;;1.33;;
2191;SDS011;1102;49.718;11.902;2022-08-07T14:42:29;0.90;;;0.80;;
2191;SDS011;1102;49.718;11.902;2022-08-07T14:45:00;1.20;;;1.10;;
2191;SDS011;1102;49.718;11.902;2022-08-07T14:47:48;2.00;;;0.80;;
2191;SDS011;1102;49.718;11.902;2022-08-07T14:50:18;1.87;;;1.13;;
2191;SDS011;1102;49.718;11.902;2022-08-07T14:52:46;1.23;;;1.13;;
2191;SDS011;1102;49.718;11.902;2022-08-07T14:55:16;1.27;;;1.17;;
2191;SDS011;1102;49.718;11.902;2022-08-07T14:57:45;1.30;;;1.10;;
2191;SDS011;1102;49.718;11.902;2022-08-07T15:00:33;1.10;;;1.00;;
2191;SDS011;1102;49.718;11.902;2022-08-07T15:03:04;1.37;;;1.27;;
2191;SDS011;1102;49.718;11.902;2022-08-07T15:05:45;2.30;;;1.90;;
2191;SDS011;1102;49.718;11.902;2022-08-07T15:08:30;1.83;;;1.27;;
2191;SDS011;1102;49.718;11.902;2022-08-07T15:11:03;1.83;;;1.00;;
2191;SDS011;1102;49.718;11.902;2022-08-07T15:13:31;1.13;;;1.00;;
2191;SDS011;1102;49.718;11.902;2022-08-07T15:16:03;1.30;;;1.20;;
2191;SDS011;1102;49.718;11.902;2022-08-07T15:18:39;1.97;;;1.07;;
2191;SDS011;1102;49.718;11.902;2022-08-07T15:21:30;1.20;;;1.10;;
2191;SDS011;1102;49.718;11.902;2022-08-07T15:24:19;2.27;;;1.00;;
2191;SDS011;1102;49.718;11.902;2022-08-07T15:29:38;1.93;;;1.30;;
2191;SDS011;1102;49.718;11.902;2022-08-07T15:32:25;1.10;;;1.00;;
2191;SDS011;1102;49.718;11.902;2022-08-07T15:35:05;1.30;;;1.20;;
2191;SDS011;1102;49.718;11.902;2022-08-07T15:37:33;1.60;;;1.20;;
2191;SDS011;1102;49.718;11.902;2022-08-07T15:40:21;3.00;;;1.20;;
2191;SDS011;1102;49.718;11.902;2022-08-07T15:43:11;1.10;;;0.87;;
2191;SDS011;1102;49.718;11.902;2022-08-07T15:45:59;1.20;;;1.10;;
2191;SDS011;1102;49.718;11.902;2022-08-07T15:48:59;1.57;;;1.00;;
2191;SDS011;1102;49.718;11.902;2022-08-07T15:51:41;5.20;;;1.40;;
2191;SDS011;1102;49.718;11.902;2022-08-07T15:54:33;2.70;;;1.20;;
2191;SDS011;1102;49.718;11.902;2022-08-07T15:57:07;2.50;;;1.43;;
2191;SDS011;1102;49.718;11.902;2022-08-07T15:59:55;1.37;;;1.00;;
2191;SDS011;1102;49.718;11.902;2022-08-07T16:02:25;1.40;;;1.20;;
2191;SDS011;1102;49.718;11.902;2022-08-07T16:05:04;0.93;;;0.83;;
2191;SDS011;1102;49.718;11.902;2022-08-07T16:07:41;2.77;;;1.20;;
2191;SDS011;1102;49.718;11.902;2022-08-07T16:10:29;1.77;;;1.33;;
2191;SDS011;1102;49.718;11.902;2022-08-07T16:15:34;1.03;;;0.87;;
2191;SDS011;1102;49.718;11.902;2022-08-07T16:21:14;1.00;;;0.90;;
2191;SDS011;1102;49.718;11.902;2022-08-07T16:24:22;1.10;;;1.00;;
2191;SDS011;1102;49.718;11.902;2022-08-07T16:32:46;1.17;;;1.00;;
2191;SDS011;1102;49.718;11.902;2022-08-07T16:35:33;1.70;;;1.10;;
2191;SDS011;1102;49.718;11.902;2022-08-07T16:41:31;3.77;;;1.20;;
2191;SDS011;1102;49.718;11.902;2022-08-07T16:50:20;1.80;;;1.00;;
2191;SDS011;1102;49.718;11.902;2022-08-07T16:59:01;2.30;;;1.30;;
2191;SDS011;1102;49.718;11.902;2022-08-07T17:12:39;2.20;;;1.77;;
2191;SDS011;1102;49.718;11.902;2022-08-07T17:20:34;3.23;;;1.73;;
2191;SDS011;1102;49.718;11.902;2022-08-07T17:29:26;2.03;;;1.37;;
2191;SDS011;1102;49.718;11.902;2022-08-07T17:32:25;2.17;;;1.10;;
2191;SDS011;1102;49.718;11.902;2022-08-07T17:35:23;1.93;;;1.40;;
2191;SDS011;1102;49.718;11.902;2022-08-07T17:38:15;2.60;;;1.77;;
2191;SDS011;1102;49.718;11.902;2022-08-07T17:43:58;1.50;;;1.40;;
2191;SDS011;1102;49.718;11.902;2022-08-07T17:46:36;2.10;;;0.90;;
2191;SDS011;1102;49.718;11.902;2022-08-07T17:54:23;3.30;;;1.70;;
2191;SDS011;1102;49.718;11.902;2022-08-07T18:00:19;3.90;;;1.40;;
2191;SDS011;1102;49.718;11.902;2022-08-07T18:06:04;1.40;;;1.30;;
2191;SDS011;1102;49.718;11.902;2022-08-07T18:08:46;3.47;;;1.03;;
2191;SDS011;1102;49.718;11.902;2022-08-07T18:11:36;3.10;;;1.60;;
2191;SDS011;1102;49.718;11.902;2022-08-07T18:19:35;2.07;;;1.43;;
2191;SDS011;1102;49.718;11.902;2022-08-07T18:25:00;1.90;;;1.67;;
2191;SDS011;1102;49.718;11.902;2022-08-07T18:30:28;1.53;;;1.43;;
2191;SDS011;1102;49.718;11.902;2022-08-07T18:35:59;2.17;;;1.30;;
2191;SDS011;1102;49.718;11.902;2022-08-07T18:47:03;1.30;;;1.20;;
2191;SDS011;1102;49.718;11.902;2022-08-07T18:49:34;4.97;;;1.50;;
2191;SDS011;1102;49.718;11.902;2022-08-07T18:55:32;2.07;;;1.20;;
2191;SDS011;1102;49.718;11.902;2022-08-07T18:58:22;1.50;;;1.40;;
2191;SDS011;1102;49.718;11.902;2022-08-07T19:03:58;1.67;;;1.40;;
2191;SDS011;1102;49.718;11.902;2022-08-07T19:06:37;2.23;;;1.23;;
2191;SDS011;1102;49.718;11.902;2022-08-07T19:09:18;2.70;;;1.40;;
2191;SDS011;1102;49.718;11.902;2022-08-07T19:14:57;1.83;;;1.10;;
2191;SDS011;1102;49.718;11.902;2022-08-07T19:17:30;1.97;;;1.40;;
2191;SDS011;1102;49.718;11.902;2022-08-07T19:20:59;1.63;;;1.23;;
2191;SDS011;1102;49.718;11.902;2022-08-07T19:23:41;2.30;;;1.20;;
2191;SDS011;1102;49.718;11.902;2022-08-07T19:26:28;1.60;;;1.50;;
2191;SDS011;1102;49.718;11.902;2022-08-07T19:29:18;1.53;;;1.13;;
2191;SDS011;1102;49.718;11.902;2022-08-07T19:32:05;1.83;;;1.53;;
2191;SDS011;1102;49.718;11.902;2022-08-07T19:34:51;1.87;;;1.30;;
2191;SDS011;1102;49.718;11.902;2022-08-07T19:37:20;1.77;;;1.67;;
2191;SDS011;1102;49.718;11.902;2022-08-07T19:39:58;2.43;;;1.37;;
2191;SDS011;1102;49.718;11.902;2022-08-07T19:42:31;4.63;;;1.63;;
2191;SDS011;1102;49.718;11.902;2022-08-07T19:45:12;2.53;;;1.40;;
2191;SDS011;1102;49.718;11.902;2022-08-07T19:47:59;5.63;;;1.60;;
2191;SDS011;1102;49.718;11.902;2022-08-07T19:50:26;3.23;;;1.63;;
2191;SDS011;1102;49.718;11.902;2022-08-07T19:53:12;5.50;;;1.90;;
2191;SDS011;1102;49.718;11.902;2022-08-07T19:55:59;2.50;;;1.93;;
2191;SDS011;1102;49.718;11.902;2022-08-07T19:58:27;2.50;;;1.70;;
2191;SDS011;1102;49.718;11.902;2022-08-07T20:00:58;4.70;;;2.00;;
2191;SDS011;1102;49.718;11.902;2022-08-07T20:03:27;10.60;;;2.47;;
2191;SDS011;1102;49.718;11.902;2022-08-07T20:06:00;5.90;;;2.60;;
2191;SDS011;1102;49.718;11.902;2022-08-07T20:08:32;3.90;;;2.20;;
2191;SDS011;1102;49.718;11.902;2022-08-07T20:11:01;7.27;;;2.77;;
2191;SDS011;1102;49.718;11.902;2022-08-07T20:13:45;3.10;;;1.87;;
2191;SDS011;1102;49.718;11.902;2022-08-07T20:16:27;4.57;;;2.50;;
2191;SDS011;1102;49.718;11.902;2022-08-07T20:19:03;2.57;;;1.80;;
2191;SDS011;1102;49.718;11.902;2022-08-07T20:21:30;5.27;;;1.93;;
2191;SDS011;1102;49.718;11.902;2022-08-07T20:24:21;2.70;;;2.00;;
2191;SDS011;1102;49.718;11.902;2022-08-07T20:26:48;2.23;;;1.60;;
2191;SDS011;1102;49.718;11.902;2022-08-07T20:29:20;4.23;;;2.03;;
2191;SDS011;1102;49.718;11.902;2022-08-07T20:32:08;2.33;;;1.80;;
2191;SDS011;1102;49.718;11.902;2022-08-07T20:34:49;3.03;;;1.90;;
2191;SDS011;1102;49.718;11.902;2022-08-07T20:37:21;2.43;;;2.23;;
2191;SDS011;1102;49.718;11.902;2022-08-07T20:39:48;2.50;;;2.30;;
2191;SDS011;1102;49.718;11.902;2022-08-07T20:42:30;2.83;;;2.03;;
2191;SDS011;1102;49.718;11.902;2022-08-07T20:44:57;5.63;;;1.90;;
2191;SDS011;1102;49.718;11.902;2022-08-07T20:47:27;2.43;;;2.23;;
2191;SDS011;1102;49.718;11.902;2022-08-07T20:50:15;4.40;;;2.43;;
2191;SDS011;1102;49.718;11.902;2022-08-07T20:52:45;4.97;;;2.47;;
2191;SDS011;1102;49.718;11.902;2022-08-07T20:55:19;3.03;;;2.17;;
2191;SDS011;1102;49.718;11.902;2022-08-07T20:57:51;3.63;;;2.20;;
2191;SDS011;1102;49.718;11.902;2022-08-07T21:00:38;2.03;;;1.83;;